»·PEaware :: N55NT KSNA-KSBP

N55NT :: KSNA-KSBP

FLIGHT INFORMATION

Flight Status: Arrived
Operator: Privately registered:
United States
More flights under this callsign
Pilot: Craig H. (6968)
Aircraft: SOCATA TBM-900
(TBM9)
More flights by this aircraft type
Origin: KSNA John Wayne-Orange Co
United States
Destination: KSBP San Luis Co Regl
United States
More flights between these airports :: More routes between these airports
Route: HHERO3 IKAYE RZS CADAB
File this flight plan on PilotEdge
Remarks:
Altitude:
(Current/Filed)
18,000ft
Speed:
(Current/Filed)
210kts
Departed: 25-Mar-20 07:14 AM
Arrived: 25-Mar-20 08:23 AM
Distance/Time
Traveled:
166nm/1:08
Distance/Time
To Go:
Arrived

Flight Plot

Page will automatically refresh every two minutes.

Flight plan parsing failed; only flown route is shown


Map Options




Map Legend


Flown Route
Filed Route
Departure Airport
Arrival Airport
Navaid (VOR, NDB)
Fix

Horizontal Profiles

Position Reports

Time Latitude Longitude Heading Altitude Ground
Speed
25-Mar-20 07:01 33.665897 -117.873024 47 59ft 0kts
25-Mar-20 07:02 33.665897 -117.873024 47 59ft 0kts
25-Mar-20 07:03 33.665897 -117.873024 47 59ft 0kts
25-Mar-20 07:04 33.665897 -117.873024 47 59ft 0kts
25-Mar-20 07:05 33.665897 -117.873024 47 59ft 0kts
25-Mar-20 07:06 33.665897 -117.873024 47 59ft 0kts
25-Mar-20 07:07 33.665897 -117.873024 47 59ft 0kts
25-Mar-20 07:08 33.666236 -117.873311 319 59ft 3kts
25-Mar-20 07:09 33.669290 -117.870749 40 59ft 19kts
25-Mar-20 07:10 33.673199 -117.867161 38 59ft 16kts
25-Mar-20 07:11 33.676907 -117.865317 28 59ft 14kts
25-Mar-20 07:12 33.680154 -117.864061 290 59ft 13kts
25-Mar-20 07:13 33.676589 -117.868277 206 63ft 98kts
25-Mar-20 07:14 33.645919 -117.887010 195 1869ft 142kts
25-Mar-20 07:15 33.606077 -117.893847 186 4005ft 147kts
25-Mar-20 07:16 33.563005 -117.908851 221 5035ft 207kts
25-Mar-20 07:17 33.521614 -117.955727 221 6539ft 191kts
25-Mar-20 07:18 33.484006 -117.998107 223 7917ft 193kts
25-Mar-20 07:19 33.459828 -118.044273 240 10607ft 136kts
25-Mar-20 07:20 33.440993 -118.082702 241 12805ft 135kts
25-Mar-20 07:21 33.422440 -118.120464 241 14877ft 131kts
25-Mar-20 07:22 33.412981 -118.160545 270 16978ft 136kts
25-Mar-20 07:23 33.421693 -118.208672 273 18174ft 178kts
25-Mar-20 07:24 33.434572 -118.274937 275 18154ft 220kts
25-Mar-20 07:25 33.459488 -118.345929 287 18153ft 240kts
25-Mar-20 07:26 33.490748 -118.417552 287 18150ft 243kts
25-Mar-20 07:27 33.522471 -118.489505 294 18140ft 249kts
25-Mar-20 07:28 33.565242 -118.556170 296 18149ft 252kts
25-Mar-20 07:29 33.607896 -118.622682 296 18148ft 252kts
25-Mar-20 07:30 33.650359 -118.689039 296 18160ft 251kts
25-Mar-20 07:31 33.709480 -118.739929 320 18160ft 275kts
25-Mar-20 07:32 33.777285 -118.781928 320 18159ft 275kts
25-Mar-20 07:33 33.845347 -118.824241 320 18159ft 275kts
25-Mar-20 07:34 33.913496 -118.866697 320 18159ft 275kts
25-Mar-20 07:35 33.981621 -118.909215 320 18159ft 276kts
25-Mar-20 07:36 34.049834 -118.951864 320 18159ft 276kts
25-Mar-20 07:37 34.118442 -118.994840 320 18152ft 277kts
25-Mar-20 07:38 34.165299 -119.056187 290 18153ft 246kts
25-Mar-20 07:39 34.199349 -119.126088 289 18151ft 246kts
25-Mar-20 07:40 34.232756 -119.194970 290 18151ft 246kts
25-Mar-20 07:41 34.267383 -119.266522 289 18150ft 246kts
25-Mar-20 07:42 34.301899 -119.337971 289 18144ft 246kts
25-Mar-20 07:43 34.336461 -119.409696 289 18135ft 246kts
25-Mar-20 07:44 34.370830 -119.481137 289 18127ft 246kts
25-Mar-20 07:45 34.405289 -119.552914 289 18120ft 246kts
25-Mar-20 07:46 34.439669 -119.624695 290 18120ft 245kts
25-Mar-20 07:47 34.474024 -119.696572 289 18132ft 246kts
25-Mar-20 07:48 34.508574 -119.768654 292 18127ft 250kts
25-Mar-20 07:49 34.566073 -119.832149 308 16752ft 291kts
25-Mar-20 07:50 34.625850 -119.896704 309 15265ft 287kts
25-Mar-20 07:51 34.685581 -119.961418 310 13765ft 286kts
25-Mar-20 07:52 34.744593 -120.025468 311 12268ft 280kts
25-Mar-20 07:53 34.801189 -120.087063 313 10755ft 268kts
25-Mar-20 07:54 34.856241 -120.146976 313 9237ft 267kts
25-Mar-20 07:55 34.911830 -120.207649 312 8977ft 250kts
25-Mar-20 07:56 34.959707 -120.260045 313 8975ft 218kts
25-Mar-20 07:57 35.004864 -120.309537 314 8982ft 219kts
25-Mar-20 07:58 35.050259 -120.359338 314 8982ft 219kts
25-Mar-20 07:59 35.095989 -120.409613 315 8265ft 222kts
25-Mar-20 08:00 35.127349 -120.465806 250 6246ft 201kts
25-Mar-20 08:02 35.093917 -120.462633 122 5469ft 148kts
25-Mar-20 08:03 35.071100 -120.415317 122 5492ft 174kts
25-Mar-20 08:04 35.072290 -120.363706 15 5483ft 198kts
25-Mar-20 08:05 35.107392 -120.407817 292 5480ft 196kts
25-Mar-20 08:06 35.135869 -120.462482 304 4576ft 165kts
25-Mar-20 08:07 35.161522 -120.508093 305 3136ft 161kts
25-Mar-20 08:08 35.186327 -120.551519 305 2100ft 153kts
25-Mar-20 08:09 35.207836 -120.589241 305 1238ft 109kts
25-Mar-20 08:10 35.223620 -120.616984 305 1130ft 99kts
25-Mar-20 08:11 35.238820 -120.651084 289 3042ft 133kts
25-Mar-20 08:12 35.248639 -120.702804 282 4008ft 187kts
25-Mar-20 08:13 35.259185 -120.765186 282 3981ft 185kts
25-Mar-20 08:14 35.273716 -120.826295 302 3985ft 188kts
25-Mar-20 08:15 35.301851 -120.881044 302 3982ft 190kts
25-Mar-20 08:16 35.340837 -120.912890 34 3416ft 213kts
25-Mar-20 08:17 35.340355 -120.848411 102 2978ft 191kts
25-Mar-20 08:18 35.322460 -120.790299 125 2973ft 173kts
25-Mar-20 08:19 35.294822 -120.741873 124 2093ft 145kts
25-Mar-20 08:20 35.274036 -120.705399 124 1379ft 99kts
25-Mar-20 08:21 35.259306 -120.679954 124 888ft 90kts
25-Mar-20 08:21 35.247324 -120.658562 124 473ft 92kts
25-Mar-20 08:22 35.237457 -120.639919 3 215ft 6kts
25-Mar-20 08:24 35.238751 -120.638875 323 215ft 5kts
25-Mar-20 08:24 35.238774 -120.638992 265 215ft 0kts

Navigation Log

Ident Type
Flight plan parsing failed, navigation log unavailable